createdAt,value
2023-02-01T00:01:13.530Z,99177.68
2023-02-01T00:03:41.421Z,99172.88
2023-02-01T00:06:09.326Z,99171.11
2023-02-01T00:08:37.207Z,99168.84
2023-02-01T00:11:08.271Z,99167.90
2023-02-01T00:13:40.632Z,99165.65
2023-02-01T00:16:19.121Z,99163.59
2023-02-01T00:18:48.951Z,99166.37
2023-02-01T00:21:18.788Z,99173.89
2023-02-01T00:23:47.173Z,99174.09
2023-02-01T00:26:39.051Z,99174.02
2023-02-01T00:29:12.532Z,99171.56
2023-02-01T00:31:40.889Z,99168.16
2023-02-01T00:34:13.317Z,99170.06
2023-02-01T00:36:42.088Z,99172.02
2023-02-01T00:39:10.717Z,99181.80
2023-02-01T00:41:38.392Z,99182.03
2023-02-01T00:44:06.018Z,99182.80
2023-02-01T00:46:33.724Z,99191.17
2023-02-01T00:49:02.961Z,99196.08
2023-02-01T00:51:31.365Z,99196.02
2023-02-01T00:53:59.652Z,99203.20
2023-02-01T00:56:30.790Z,99198.49
2023-02-01T00:58:58.466Z,99205.70
2023-02-01T01:01:28.090Z,99201.84
2023-02-01T01:03:58.662Z,99205.83
2023-02-01T01:06:29.283Z,99206.36
2023-02-01T01:08:59.018Z,99204.75
2023-02-01T01:11:29.516Z,99202.72
2023-02-01T01:13:59.460Z,99196.54
2023-02-01T01:16:29.020Z,99195.85
2023-02-01T01:18:56.881Z,99193.58
2023-02-01T01:21:25.246Z,99200.23
2023-02-01T01:23:53.452Z,99196.92
2023-02-01T01:26:26.907Z,99201.96
2023-02-01T01:28:57.346Z,99207.58
2023-02-01T01:31:25.815Z,99209.73
2023-02-01T01:33:56.594Z,99219.05
2023-02-01T01:36:25.619Z,99216.45
2023-02-01T01:38:53.767Z,99215.92
2023-02-01T01:41:24.349Z,99215.20
2023-02-01T01:44:02.807Z,99211.70
2023-02-01T01:46:37.280Z,99213.61
2023-02-01T01:49:13.525Z,99213.50
2023-02-01T01:51:55.830Z,99213.25
2023-02-01T01:54:38.337Z,99212.44
2023-02-01T01:57:12.280Z,99215.38
2023-02-01T01:59:44.050Z,99215.67
2023-02-01T02:02:11.723Z,99228.02
2023-02-01T02:04:40.299Z,99231.09
2023-02-01T02:07:14.159Z,99234.03
2023-02-01T02:09:54.683Z,99239.27
2023-02-01T02:12:27.616Z,99235.17
2023-02-01T02:14:55.751Z,99240.48
2023-02-01T02:17:29.367Z,99242.52
2023-02-01T02:20:35.794Z,99245.61
2023-02-01T02:23:38.311Z,99247.92
2023-02-01T02:26:11.940Z,99247.99
2023-02-01T02:28:55.568Z,99244.13
2023-02-01T02:31:33.281Z,99253.38
2023-02-01T02:34:19.962Z,99251.66
2023-02-01T02:36:59.647Z,99256.74
2023-02-01T02:39:45.564Z,99260.30
2023-02-01T02:42:40.856Z,99263.26
2023-02-01T02:45:34.709Z,99268.54
2023-02-01T02:48:12.078Z,99269.15
2023-02-01T02:51:06.494Z,99269.35
2023-02-01T02:54:05.684Z,99272.48
2023-02-01T02:56:53.483Z,99269.61
2023-02-01T02:59:43.663Z,99269.20
2023-02-01T03:02:31.475Z,99274.61
2023-02-01T03:04:59.610Z,99273.70
2023-02-01T03:08:11.530Z,99271.06
2023-02-01T03:10:52.554Z,99279.83
2023-02-01T03:13:29.464Z,99276.49
2023-02-01T03:16:24.119Z,99274.24
2023-02-01T03:19:10.530Z,99275.19
2023-02-01T03:21:42.734Z,99273.13
2023-02-01T03:24:17.177Z,99273.91
2023-02-01T03:26:59.308Z,99276.04
2023-02-01T03:29:30.865Z,99277.27
2023-02-01T03:31:58.774Z,99278.10
2023-02-01T03:34:28.269Z,99283.63
2023-02-01T03:37:09.923Z,99285.52
2023-02-01T03:39:46.021Z,99288.91
2023-02-01T03:42:17.246Z,99297.70
2023-02-01T03:44:54.615Z,99298.73
2023-02-01T03:47:26.867Z,99296.83
2023-02-01T03:50:05.498Z,99303.06
2023-02-01T03:52:41.465Z,99298.80
2023-02-01T03:55:13.503Z,99302.02
2023-02-01T03:57:52.711Z,99299.59
2023-02-01T04:00:23.740Z,99304.98
2023-02-01T04:02:53.210Z,99299.06
2023-02-01T04:05:22.318Z,99294.84
2023-02-01T04:08:09.005Z,99301.71
2023-02-01T04:10:36.613Z,99301.30
2023-02-01T04:13:04.318Z,99299.08
2023-02-01T04:15:32.013Z,99300.89
2023-02-01T04:17:59.648Z,99302.48
2023-02-01T04:20:27.341Z,99299.98
2023-02-01T04:39:01.078Z,99305.13
2023-02-01T04:41:27.488Z,99311.45
2023-02-01T04:43:53.772Z,99315.09
2023-02-01T04:46:20.227Z,99310.08
2023-02-01T04:48:46.512Z,99310.33
2023-02-01T04:51:13.298Z,99315.93
2023-02-01T04:53:39.619Z,99318.65
2023-02-01T04:56:06.599Z,99324.19
2023-02-01T04:58:32.964Z,99326.87
2023-02-01T05:00:59.276Z,99329.19
2023-02-01T05:03:25.675Z,99330.83
2023-02-01T05:05:53.788Z,99329.42
2023-02-01T05:08:22.604Z,99329.26
2023-02-01T05:10:49.108Z,99334.95
2023-02-01T05:13:33.823Z,99329.38
2023-02-01T05:16:00.135Z,99327.13
2023-02-01T05:18:26.533Z,99327.09
2023-02-01T05:20:52.751Z,99319.05
2023-02-01T05:23:19.004Z,99325.02
2023-02-01T05:25:45.263Z,99327.30
2023-02-01T05:28:11.572Z,99319.52
2023-02-01T05:30:39.776Z,99323.88
2023-02-01T05:33:07.345Z,99314.91
2023-02-01T05:35:33.668Z,99316.55
2023-02-01T05:37:59.977Z,99311.88
2023-02-01T05:40:26.364Z,99307.14
2023-02-01T05:42:52.664Z,99309.77
2023-02-01T05:45:18.947Z,99307.98
2023-02-01T05:47:45.258Z,99308.90
2023-02-01T05:50:11.540Z,99306.36
2023-02-01T05:52:37.781Z,99306.71
2023-02-01T05:55:04.642Z,99312.98
2023-02-01T05:57:31.086Z,99315.45
2023-02-01T05:59:58.190Z,99313.16
2023-02-01T06:02:24.961Z,99313.17
2023-02-01T06:04:51.802Z,99312.54
2023-02-01T06:07:18.079Z,99313.27
2023-02-01T06:09:44.343Z,99305.16
2023-02-01T06:12:10.649Z,99306.49
2023-02-01T06:14:37.382Z,99312.52
2023-02-01T06:17:03.627Z,99311.23
2023-02-01T06:19:30.575Z,99307.38
2023-02-01T06:21:56.805Z,99311.42
2023-02-01T06:24:23.206Z,99314.11
2023-02-01T06:26:49.563Z,99311.70
2023-02-01T06:29:15.911Z,99312.11
2023-02-01T06:31:43.142Z,99301.34
2023-02-01T06:34:09.448Z,99304.35
2023-02-01T06:36:36.109Z,99302.92
2023-02-01T06:39:02.560Z,99302.21
2023-02-01T06:41:29.687Z,99299.84
2023-02-01T06:43:56.302Z,99301.38
2023-02-01T06:46:22.679Z,99297.23
2023-02-01T06:48:50.650Z,99298.45
2023-02-01T06:51:24.917Z,99297.27
2023-02-01T06:53:51.396Z,99288.48
2023-02-01T06:56:18.267Z,99293.62
2023-02-01T06:58:45.009Z,99293.90
2023-02-01T07:01:12.231Z,99298.23
2023-02-01T07:03:38.915Z,99298.77
2023-02-01T07:06:06.268Z,99295.02
2023-02-01T07:14:06.285Z,99295.90
2023-02-01T07:16:34.010Z,99294.02
2023-02-01T07:19:02.460Z,99290.13
2023-02-01T07:21:30.146Z,99284.48
2023-02-01T07:23:59.091Z,99282.85
2023-02-01T07:26:26.865Z,99286.71
2023-02-01T07:28:54.618Z,99282.77
2023-02-01T07:31:22.873Z,99291.81
2023-02-01T07:33:53.632Z,99301.96
2023-02-01T07:36:21.642Z,99304.83
2023-02-01T07:38:49.395Z,99308.83
2023-02-01T07:41:17.292Z,99300.88
2023-02-01T07:43:45.074Z,99309.52
2023-02-01T07:46:13.729Z,99310.29
2023-02-01T07:48:41.699Z,99302.52
2023-02-01T07:51:12.733Z,99306.17
2023-02-01T07:53:41.167Z,99309.67
2023-02-01T07:56:15.963Z,99302.42
2023-02-01T07:58:44.319Z,99296.71
2023-02-01T08:01:21.440Z,99303.88
2023-02-01T08:03:50.884Z,99305.76
2023-02-01T08:06:20.620Z,99291.69
2023-02-01T08:08:50.071Z,99296.50
2023-02-01T08:11:18.818Z,99289.02
2023-02-01T08:13:46.860Z,99298.52
2023-02-01T08:16:16.154Z,99301.37
2023-02-01T08:18:43.983Z,99302.27
2023-02-01T08:21:17.522Z,99298.40
2023-02-01T08:23:45.880Z,99299.10
2023-02-01T08:26:15.611Z,99301.80
2023-02-01T08:28:44.327Z,99298.13
2023-02-01T08:31:15.727Z,99300.75
2023-02-01T08:33:45.299Z,99299.69
2023-02-01T08:36:13.098Z,99295.27
2023-02-01T08:38:41.325Z,99296.49
2023-02-01T08:41:12.749Z,99295.45
2023-02-01T08:43:41.154Z,99298.05
2023-02-01T08:46:09.733Z,99294.05
2023-02-01T08:48:38.322Z,99293.02
2023-02-01T08:51:08.366Z,99296.67
2023-02-01T08:53:37.139Z,99298.73
2023-02-01T08:56:05.257Z,99298.50
2023-02-01T08:58:32.903Z,99305.16
2023-02-01T09:01:09.107Z,99303.17
2023-02-01T09:03:37.216Z,99303.87
2023-02-01T09:06:10.120Z,99305.03
2023-02-01T09:08:38.482Z,99297.84
2023-02-01T09:11:13.593Z,99301.39
2023-02-01T09:13:41.437Z,99300.98
2023-02-01T09:16:09.233Z,99296.68
2023-02-01T09:18:41.835Z,99295.97
2023-02-01T09:21:18.548Z,99295.37
2023-02-01T09:23:46.244Z,99293.84
2023-02-01T09:26:17.189Z,99293.23
2023-02-01T09:28:47.306Z,99295.44
2023-02-01T09:31:15.079Z,99304.08
2023-02-01T09:33:42.856Z,99307.23
2023-02-01T09:36:10.566Z,99301.63
2023-02-01T09:38:41.725Z,99295.23
2023-02-01T09:41:38.994Z,99295.29
2023-02-01T09:44:39.020Z,99286.11
2023-02-01T09:47:16.858Z,99288.42
2023-02-01T09:50:04.440Z,99294.50
2023-02-01T09:52:44.496Z,99290.92
2023-02-01T09:55:22.901Z,99287.83
2023-02-01T09:58:21.961Z,99292.52
2023-02-01T10:00:54.030Z,99283.20
2023-02-01T10:03:25.276Z,99282.00
2023-02-01T10:06:11.189Z,99282.45
2023-02-01T10:09:15.688Z,99286.14
2023-02-01T10:12:01.974Z,99285.13
2023-02-01T10:14:52.552Z,99290.09
2023-02-01T10:17:58.094Z,99284.39
2023-02-01T10:20:45.591Z,99284.00
2023-02-01T10:23:32.962Z,99282.89
2023-02-01T10:26:20.588Z,99278.75
2023-02-01T10:28:52.703Z,99276.21
2023-02-01T10:31:23.562Z,99273.09
2023-02-01T10:33:57.192Z,99274.85
2023-02-01T10:36:41.878Z,99279.39
2023-02-01T10:39:16.108Z,99278.06
2023-02-01T10:41:46.420Z,99275.16
2023-02-01T10:44:18.082Z,99277.43
2023-02-01T10:46:45.950Z,99285.16
2023-02-01T10:49:23.699Z,99285.10
2023-02-01T10:52:23.495Z,99282.20
2023-02-01T10:54:51.220Z,99280.85
2023-02-01T10:57:26.956Z,99271.42
2023-02-01T10:59:55.219Z,99273.49
2023-02-01T11:02:36.568Z,99275.58
2023-02-01T11:05:13.223Z,99274.16
2023-02-01T11:07:49.680Z,99277.46
2023-02-01T11:10:37.605Z,99272.98
2023-02-01T11:13:06.448Z,99268.23
2023-02-01T11:15:34.473Z,99272.14
2023-02-01T11:18:17.326Z,99272.45
2023-02-01T11:20:50.103Z,99264.58
2023-02-01T11:23:21.048Z,99264.88
2023-02-01T11:25:50.286Z,99264.33
2023-02-01T11:28:19.053Z,99264.11
2023-02-01T11:30:49.204Z,99261.10
2023-02-01T11:33:20.357Z,99263.39
2023-02-01T11:35:49.968Z,99263.98
2023-02-01T11:38:23.538Z,99267.55
2023-02-01T11:40:51.277Z,99262.95
2023-02-01T11:43:28.274Z,99259.13
2023-02-01T11:46:01.909Z,99249.42
2023-02-01T11:48:32.719Z,99247.30
2023-02-01T11:51:16.721Z,99245.37
2023-02-01T11:53:56.352Z,99239.06
2023-02-01T11:57:18.969Z,99247.55
2023-02-01T11:59:57.191Z,99242.95
2023-02-01T12:02:59.511Z,99244.42
2023-02-01T12:05:36.203Z,99244.02
2023-02-01T12:08:25.709Z,99241.13
2023-02-01T12:11:32.937Z,99234.17
2023-02-01T12:14:19.816Z,99235.64
2023-02-01T12:17:15.422Z,99233.33
2023-02-01T12:20:04.597Z,99227.41
2023-02-01T12:22:52.482Z,99225.91
2023-02-01T12:25:26.967Z,99227.14
2023-02-01T12:28:02.069Z,99227.63
2023-02-01T12:30:54.077Z,99232.80
2023-02-01T12:33:57.131Z,99226.98
2023-02-01T12:36:58.974Z,99232.45
2023-02-01T12:39:46.609Z,99236.08
2023-02-01T12:42:30.349Z,99238.23
2023-02-01T12:45:01.757Z,99238.34
2023-02-01T12:47:58.903Z,99244.30
2023-02-01T12:50:33.982Z,99245.55
2023-02-01T12:53:21.607Z,99242.44
2023-02-01T12:55:53.447Z,99238.63
2023-02-01T12:58:43.673Z,99233.08
2023-02-01T13:01:20.756Z,99231.53
2023-02-01T13:04:12.667Z,99231.52
2023-02-01T13:06:48.526Z,99239.56
2023-02-01T13:09:38.222Z,99234.34
2023-02-01T13:12:14.999Z,99238.40
2023-02-01T13:14:52.856Z,99239.44
2023-02-01T13:17:32.836Z,99245.02
2023-02-01T13:20:06.423Z,99240.52
2023-02-01T13:22:42.241Z,99243.85
2023-02-01T13:25:39.232Z,99248.48
2023-02-01T13:28:27.043Z,99265.20
2023-02-01T13:31:06.850Z,99248.33
2023-02-01T13:33:56.933Z,99262.61
2023-02-01T13:36:46.634Z,99265.73
2023-02-01T13:39:50.711Z,99256.15
2023-02-01T13:42:21.342Z,99254.18
2023-02-01T13:44:57.623Z,99257.31
2023-02-01T13:47:30.016Z,99256.90
2023-02-01T13:50:03.039Z,99262.02
2023-02-01T13:52:38.985Z,99258.48
2023-02-01T13:55:21.871Z,99263.72
2023-02-01T13:57:53.951Z,99265.11
2023-02-01T14:00:31.559Z,99268.17
2023-02-01T14:03:02.305Z,99271.71
2023-02-01T14:05:30.312Z,99267.77
2023-02-01T14:08:14.046Z,99271.54
2023-02-01T14:10:53.970Z,99269.66
2023-02-01T14:13:24.496Z,99267.77
2023-02-01T14:16:04.636Z,99261.42
2023-02-01T14:18:38.814Z,99254.46
2023-02-01T14:21:37.188Z,99253.42
2023-02-01T14:24:15.982Z,99244.72
2023-02-01T14:26:53.979Z,99243.88
2023-02-01T14:29:34.401Z,99248.27
2023-02-01T14:32:11.833Z,99249.71
2023-02-01T14:34:49.601Z,99247.92
2023-02-01T14:37:17.455Z,99247.22
2023-02-01T14:39:45.121Z,99251.14
2023-02-01T14:42:30.729Z,99255.30
2023-02-01T14:45:24.339Z,99252.30
2023-02-01T14:48:05.725Z,99250.96
2023-02-01T14:50:33.804Z,99253.01
2023-02-01T14:53:16.418Z,99255.20
2023-02-01T14:56:03.992Z,99257.62
2023-02-01T14:58:50.028Z,99253.31
2023-02-01T15:01:25.507Z,99256.81
2023-02-01T15:04:11.761Z,99260.17
2023-02-01T15:06:40.784Z,99266.05
2023-02-01T15:09:22.317Z,99260.77
2023-02-01T15:12:05.346Z,99261.35
2023-02-01T15:14:37.467Z,99257.77
2023-02-01T15:17:21.313Z,99261.16
2023-02-01T15:20:00.530Z,99262.77
2023-02-01T15:22:30.231Z,99263.85
2023-02-01T15:24:59.021Z,99260.30
2023-02-01T15:27:38.221Z,99259.07
2023-02-01T15:30:27.720Z,99259.61
2023-02-01T15:33:14.756Z,99259.13
2023-02-01T15:35:48.621Z,99262.52
2023-02-01T15:38:25.514Z,99262.45
2023-02-01T15:40:58.827Z,99267.84
2023-02-01T15:43:28.107Z,99263.76
2023-02-01T15:46:01.231Z,99265.61
2023-02-01T15:48:42.392Z,99267.70
2023-02-01T15:51:18.455Z,99267.47
2023-02-01T15:53:50.475Z,99261.66
2023-02-01T15:56:24.452Z,99268.73
2023-02-01T15:58:56.060Z,99267.04
2023-02-01T16:01:24.329Z,99267.36
2023-02-01T16:04:18.153Z,99268.20
2023-02-01T16:06:51.265Z,99269.98
2023-02-01T16:09:25.450Z,99264.79
2023-02-01T16:11:57.056Z,99263.54
2023-02-01T16:14:25.410Z,99260.73
2023-02-01T16:16:55.380Z,99259.16
2023-02-01T16:19:26.054Z,99264.11
2023-02-01T16:21:53.737Z,99268.17
2023-02-01T16:24:24.060Z,99267.24
2023-02-01T16:26:51.812Z,99269.73
2023-02-01T16:29:19.498Z,99268.30
2023-02-01T16:31:49.697Z,99265.39
2023-02-01T16:34:18.732Z,99266.06
2023-02-01T16:36:57.826Z,99275.56
2023-02-01T16:39:26.180Z,99269.64
2023-02-01T16:41:53.806Z,99262.92
2023-02-01T16:44:21.523Z,99268.36
2023-02-01T16:46:49.555Z,99266.96
2023-02-01T16:49:23.140Z,99266.52
2023-02-01T16:51:56.024Z,99264.77
2023-02-01T16:54:24.094Z,99270.05
2023-02-01T16:56:51.765Z,99272.64
2023-02-01T16:59:19.723Z,99270.16
2023-02-01T17:01:47.401Z,99268.95
2023-02-01T17:04:17.453Z,99268.42
2023-02-01T17:06:48.323Z,99276.82
2023-02-01T17:09:16.132Z,99273.39
2023-02-01T17:11:43.746Z,99277.10
2023-02-01T17:14:16.449Z,99279.43
2023-02-01T17:16:46.470Z,99283.92
2023-02-01T17:19:18.138Z,99285.05
2023-02-01T17:21:50.521Z,99284.45
2023-02-01T17:24:27.116Z,99284.46
2023-02-01T17:26:56.674Z,99283.54
2023-02-01T17:29:24.487Z,99284.68
2023-02-01T17:31:55.060Z,99286.34
2023-02-01T17:34:23.274Z,99283.55
2023-02-01T17:36:51.481Z,99280.14
2023-02-01T17:39:37.883Z,99280.09
2023-02-01T17:42:06.870Z,99275.12
2023-02-01T17:44:34.599Z,99281.55
2023-02-01T17:47:02.301Z,99278.02
2023-02-01T17:49:30.144Z,99277.27
2023-02-01T17:51:58.380Z,99285.57
2023-02-01T17:54:26.405Z,99283.20
2023-02-01T17:56:54.073Z,99286.02
2023-02-01T17:59:21.741Z,99283.70
2023-02-01T18:01:49.634Z,99284.98
2023-02-01T18:04:19.496Z,99280.88
2023-02-01T18:06:47.231Z,99280.35
2023-02-01T18:09:14.881Z,99280.80
2023-02-01T18:11:42.595Z,99279.52
2023-02-01T18:14:13.610Z,99279.88
2023-02-01T18:16:41.886Z,99284.36
2023-02-01T18:19:09.627Z,99287.10
2023-02-01T18:21:41.796Z,99285.55
2023-02-01T18:24:13.177Z,99282.15
2023-02-01T18:26:41.930Z,99281.62
2023-02-01T18:29:09.832Z,99275.77
2023-02-01T18:31:45.127Z,99274.99
2023-02-01T18:34:17.315Z,99276.22
2023-02-01T18:36:44.909Z,99276.31
2023-02-01T18:39:12.695Z,99278.58
2023-02-01T18:41:41.303Z,99272.50
2023-02-01T18:44:15.558Z,99269.59
2023-02-01T18:46:43.599Z,99276.96
2023-02-01T18:49:13.915Z,99274.40
2023-02-01T18:51:43.590Z,99274.48
2023-02-01T18:54:12.145Z,99276.98
2023-02-01T18:56:40.165Z,99276.20
2023-02-01T18:59:08.665Z,99272.45
2023-02-01T19:01:36.372Z,99270.16
2023-02-01T19:04:08.945Z,99268.65
2023-02-01T19:06:38.821Z,99267.67
2023-02-01T19:09:06.441Z,99259.68
2023-02-01T19:11:34.189Z,99253.91
2023-02-01T19:14:01.829Z,99253.39
2023-02-01T19:16:29.484Z,99252.00
2023-02-01T19:18:57.177Z,99246.20
2023-02-01T19:21:24.998Z,99247.69
2023-02-01T19:23:52.764Z,99251.95
2023-02-01T19:26:20.510Z,99253.41
2023-02-01T19:28:49.032Z,99255.17
2023-02-01T19:31:17.245Z,99250.66
2023-02-01T19:33:45.143Z,99253.17
2023-02-01T19:36:12.986Z,99248.29
2023-02-01T19:38:41.335Z,99251.66
2023-02-01T19:41:08.995Z,99252.95
2023-02-01T19:43:37.053Z,99256.69
2023-02-01T19:46:05.217Z,99261.73
2023-02-01T19:48:34.254Z,99259.14
2023-02-01T19:51:04.160Z,99254.08
2023-02-01T19:53:31.992Z,99249.85
2023-02-01T19:56:02.011Z,99249.42
2023-02-01T19:58:29.877Z,99251.36
2023-02-01T20:00:59.547Z,99251.10
2023-02-01T20:03:27.797Z,99245.39
2023-02-01T20:05:57.904Z,99243.45
2023-02-01T20:08:25.869Z,99244.73
2023-02-01T20:10:53.615Z,99241.92
2023-02-01T20:13:21.442Z,99237.50
2023-02-01T20:15:59.454Z,99240.85
2023-02-01T20:18:28.204Z,99242.92
2023-02-01T20:20:57.812Z,99243.16
2023-02-01T20:23:27.615Z,99242.55
2023-02-01T20:26:01.644Z,99247.33
2023-02-01T20:28:29.475Z,99249.39
2023-02-01T20:30:58.016Z,99248.02
2023-02-01T20:33:27.473Z,99246.31
2023-02-01T20:35:55.428Z,99246.55
2023-02-01T20:38:23.272Z,99243.14
2023-02-01T20:40:50.925Z,99245.63
2023-02-01T20:43:18.947Z,99245.48
2023-02-01T20:45:49.524Z,99245.52
2023-02-01T20:48:17.305Z,99238.45
2023-02-01T20:50:44.901Z,99238.76
2023-02-01T20:53:14.635Z,99235.83
2023-02-01T20:55:54.436Z,99234.16
2023-02-01T20:58:22.422Z,99228.65
2023-02-01T21:00:51.143Z,99225.42
2023-02-01T21:03:18.887Z,99222.92
2023-02-01T21:05:48.613Z,99217.42
2023-02-01T21:08:16.167Z,99216.19
2023-02-01T21:13:43.050Z,99223.11
2023-02-01T21:16:13.461Z,99224.83
2023-02-01T21:18:41.231Z,99224.38
2023-02-01T21:21:11.660Z,99223.64
2023-02-01T21:23:47.608Z,99223.34
2023-02-01T21:26:17.236Z,99225.39
2023-02-01T21:28:45.126Z,99225.79
2023-02-01T21:31:15.179Z,99229.24
2023-02-01T21:33:44.022Z,99228.83
2023-02-01T21:36:18.720Z,99226.77
2023-02-01T21:38:54.583Z,99227.37
2023-02-01T21:41:43.407Z,99230.55
2023-02-01T21:44:14.507Z,99231.05
2023-02-01T21:46:43.698Z,99226.67
2023-02-01T21:49:11.510Z,99229.90
2023-02-01T21:51:39.608Z,99229.49
2023-02-01T21:54:09.265Z,99225.92
2023-02-01T21:56:38.206Z,99225.63
2023-02-01T21:59:06.644Z,99223.38
2023-02-01T22:01:34.276Z,99224.14
2023-02-01T22:04:02.186Z,99222.90
2023-02-01T22:06:36.417Z,99222.63
2023-02-01T22:09:05.401Z,99218.48
2023-02-01T22:11:33.524Z,99217.40
2023-02-01T22:14:01.283Z,99214.33
2023-02-01T22:16:31.403Z,99213.27
2023-02-01T22:18:59.285Z,99216.89
2023-02-01T22:21:27.320Z,99215.08
2023-02-01T22:23:57.458Z,99219.18
2023-02-01T22:26:27.230Z,99222.23
2023-02-01T22:28:55.259Z,99222.16
2023-02-01T22:31:23.227Z,99222.26
2023-02-01T22:33:51.068Z,99231.54
2023-02-01T22:36:19.311Z,99230.30
2023-02-01T22:38:48.557Z,99222.13
2023-02-01T22:41:16.707Z,99222.44
2023-02-01T22:43:44.523Z,99222.75
2023-02-01T22:46:15.544Z,99222.67
2023-02-01T22:48:45.361Z,99219.45
2023-02-01T22:51:17.983Z,99212.68
2023-02-01T22:53:46.044Z,99214.76
2023-02-01T22:56:16.883Z,99209.19
2023-02-01T22:58:44.598Z,99204.39
2023-02-01T23:01:13.976Z,99203.60
2023-02-01T23:03:41.956Z,99204.20
2023-02-01T23:06:09.935Z,99208.55
2023-02-01T23:08:39.463Z,99210.70
2023-02-01T23:11:09.424Z,99209.76
2023-02-01T23:13:39.079Z,99205.77
2023-02-01T23:16:08.287Z,99206.58
2023-02-01T23:18:36.661Z,99208.34
2023-02-01T23:21:07.643Z,99211.88
2023-02-01T23:23:35.768Z,99201.95
2023-02-01T23:26:04.362Z,99204.73
2023-02-01T23:28:32.577Z,99202.45
2023-02-01T23:31:06.561Z,99206.17
2023-02-01T23:33:34.797Z,99206.99
2023-02-01T23:36:04.504Z,99206.89
2023-02-01T23:38:32.266Z,99206.83
2023-02-01T23:41:07.188Z,99207.36
2023-02-01T23:43:53.709Z,99211.38
2023-02-01T23:46:21.995Z,99211.52
2023-02-01T23:48:51.315Z,99217.59
2023-02-01T23:51:20.548Z,99210.86
2023-02-01T23:53:48.554Z,99216.34
2023-02-01T23:56:19.291Z,99219.04
2023-02-01T23:58:47.974Z,99221.66
